createdAt,value
2018-05-27T00:01:47.699Z,19.66
2018-05-27T00:04:15.226Z,19.75
2018-05-27T00:06:43.402Z,19.60
2018-05-27T00:09:10.930Z,19.49
2018-05-27T00:11:38.502Z,19.51
2018-05-27T00:14:06.053Z,19.44
2018-05-27T00:16:33.610Z,19.61
2018-05-27T00:19:01.162Z,19.40
2018-05-27T00:21:28.770Z,19.54
2018-05-27T00:23:56.299Z,19.59
2018-05-27T00:26:23.839Z,19.64
2018-05-27T00:28:51.554Z,19.42
2018-05-27T00:31:19.110Z,19.61
2018-05-27T00:33:46.747Z,19.59
2018-05-27T00:36:14.339Z,19.50
2018-05-27T00:38:41.904Z,19.61
2018-05-27T00:41:09.430Z,19.62
2018-05-27T00:43:36.982Z,19.45
2018-05-27T00:46:04.527Z,19.45
2018-05-27T00:48:32.086Z,19.45
2018-05-27T00:50:59.632Z,19.41
2018-05-27T00:53:39.027Z,19.42
2018-05-27T00:56:06.594Z,19.27
2018-05-27T00:58:34.246Z,19.32
2018-05-27T01:01:01.806Z,19.21
2018-05-27T01:03:29.473Z,19.12
2018-05-27T01:05:57.001Z,19.02
2018-05-27T01:08:24.582Z,19.02
2018-05-27T01:10:52.144Z,19.01
2018-05-27T01:13:19.697Z,18.97
2018-05-27T01:15:47.250Z,18.92
2018-05-27T01:18:14.810Z,18.79
2018-05-27T01:20:42.389Z,18.81
2018-05-27T01:23:09.944Z,18.72
2018-05-27T01:25:37.466Z,18.77
2018-05-27T01:28:05.062Z,18.73
2018-05-27T01:30:32.622Z,18.66
2018-05-27T01:33:00.292Z,18.73
2018-05-27T01:35:27.825Z,18.56
2018-05-27T01:37:55.431Z,18.44
2018-05-27T01:40:23.029Z,18.61
2018-05-27T01:42:50.585Z,18.55
2018-05-27T01:45:18.183Z,18.45
2018-05-27T01:47:45.859Z,18.52
2018-05-27T01:50:13.389Z,18.46
2018-05-27T01:52:40.962Z,18.18
2018-05-27T01:55:08.485Z,18.25
2018-05-27T01:57:36.054Z,18.46
2018-05-27T02:00:03.650Z,18.44
2018-05-27T02:02:31.303Z,18.38
2018-05-27T02:04:58.865Z,18.28
2018-05-27T02:07:26.406Z,18.29
2018-05-27T02:09:53.985Z,18.31
2018-05-27T02:12:21.541Z,18.22
2018-05-27T02:14:49.110Z,18.29
2018-05-27T02:17:16.637Z,18.18
2018-05-27T02:19:45.019Z,18.15
2018-05-27T02:22:12.569Z,17.97
2018-05-27T02:24:40.170Z,18.14
2018-05-27T02:27:07.717Z,18.22
2018-05-27T02:29:35.278Z,18.25
2018-05-27T02:32:02.828Z,18.19
2018-05-27T02:34:30.503Z,18.09
2018-05-27T02:36:58.055Z,17.98
2018-05-27T02:39:25.720Z,17.89
2018-05-27T02:41:53.258Z,18.00
2018-05-27T02:44:20.810Z,17.97
2018-05-27T02:46:48.332Z,17.96
2018-05-27T02:49:15.966Z,17.90
2018-05-27T02:51:43.619Z,17.68
2018-05-27T02:54:11.486Z,17.76
2018-05-27T02:56:39.044Z,17.54
2018-05-27T02:59:06.602Z,17.68
2018-05-27T03:01:34.177Z,17.73
2018-05-27T03:04:01.753Z,17.54
2018-05-27T03:06:29.286Z,17.63
2018-05-27T03:08:56.858Z,17.64
2018-05-27T03:11:24.391Z,17.67
2018-05-27T03:13:51.967Z,17.60
2018-05-27T03:16:19.517Z,17.68
2018-05-27T03:18:47.192Z,17.59
2018-05-27T03:21:16.242Z,17.67
2018-05-27T03:23:43.814Z,17.74
2018-05-27T03:26:11.399Z,17.86
2018-05-27T03:28:38.973Z,17.73
2018-05-27T03:31:06.508Z,17.69
2018-05-27T03:33:34.103Z,17.49
2018-05-27T03:36:01.625Z,17.50
2018-05-27T03:38:29.311Z,17.47
2018-05-27T03:40:56.877Z,17.48
2018-05-27T03:43:24.416Z,17.33
2018-05-27T03:45:52.077Z,17.48
2018-05-27T03:48:19.637Z,17.52
2018-05-27T03:50:47.195Z,17.44
2018-05-27T03:53:14.721Z,17.48
2018-05-27T03:55:42.328Z,17.35
2018-05-27T03:58:09.854Z,17.17
2018-05-27T04:00:37.430Z,16.85
2018-05-27T04:03:04.995Z,16.97
2018-05-27T04:05:44.557Z,17.14
2018-05-27T04:08:23.946Z,17.11
2018-05-27T04:10:51.514Z,17.05
2018-05-27T04:13:19.093Z,17.00
2018-05-27T04:15:46.754Z,17.07
2018-05-27T04:18:14.292Z,17.31
2018-05-27T04:20:41.973Z,17.36
2018-05-27T04:23:09.544Z,17.44
2018-05-27T04:25:37.130Z,17.31
2018-05-27T04:28:04.653Z,17.24
2018-05-27T04:30:32.229Z,17.36
2018-05-27T04:32:59.770Z,17.44
2018-05-27T04:35:27.432Z,17.62
2018-05-27T04:37:54.961Z,17.69
2018-05-27T04:40:22.563Z,17.59
2018-05-27T04:42:50.089Z,17.71
2018-05-27T04:45:17.670Z,17.83
2018-05-27T04:47:45.194Z,18.02
2018-05-27T04:50:12.788Z,18.04
2018-05-27T04:52:40.347Z,18.15
2018-05-27T04:55:08.020Z,18.24
2018-05-27T04:57:35.579Z,18.31
2018-05-27T05:00:03.232Z,18.49
2018-05-27T05:02:30.792Z,18.56
2018-05-27T05:04:58.362Z,18.69
2018-05-27T05:07:25.880Z,18.78
2018-05-27T05:09:53.467Z,18.86
2018-05-27T05:12:20.989Z,18.90
2018-05-27T05:14:48.610Z,18.91
2018-05-27T05:17:16.967Z,19.06
2018-05-27T05:19:44.511Z,19.10
2018-05-27T05:22:12.096Z,19.27
2018-05-27T05:24:39.650Z,19.31
2018-05-27T05:27:07.202Z,19.33
2018-05-27T05:29:34.754Z,19.44
2018-05-27T05:32:02.408Z,19.51
2018-05-27T05:34:29.933Z,19.58
2018-05-27T05:36:57.512Z,19.57
2018-05-27T05:39:25.059Z,19.56
2018-05-27T05:41:52.642Z,19.73
2018-05-27T05:44:20.164Z,19.80
2018-05-27T05:46:47.742Z,19.90
2018-05-27T05:49:15.370Z,19.87
2018-05-27T05:51:42.924Z,20.01
2018-05-27T05:54:10.574Z,20.16
2018-05-27T05:56:38.126Z,20.33
2018-05-27T05:59:06.128Z,20.43
2018-05-27T06:01:36.432Z,20.70
2018-05-27T06:04:04.287Z,20.82
2018-05-27T06:06:31.945Z,21.01
2018-05-27T06:08:59.457Z,21.13
2018-05-27T06:11:27.064Z,21.19
2018-05-27T06:13:54.594Z,21.32
2018-05-27T06:16:22.174Z,21.35
2018-05-27T06:18:49.753Z,21.46
2018-05-27T06:21:17.325Z,21.40
2018-05-27T06:23:44.911Z,21.53
2018-05-27T06:26:12.455Z,21.40
2018-05-27T06:28:40.006Z,21.46
2018-05-27T06:31:07.653Z,21.41
2018-05-27T06:33:35.313Z,21.40
2018-05-27T06:36:02.841Z,21.44
2018-05-27T06:38:30.387Z,21.46
2018-05-27T06:40:58.445Z,21.61
2018-05-27T06:43:26.069Z,21.61
2018-05-27T06:45:53.724Z,21.61
2018-05-27T06:48:21.293Z,21.65
2018-05-27T06:50:48.834Z,21.66
2018-05-27T06:53:17.324Z,21.59
2018-05-27T06:55:44.882Z,21.69
2018-05-27T06:58:14.737Z,21.57
2018-05-27T07:00:42.503Z,21.66
2018-05-27T07:03:12.859Z,21.70
2018-05-27T07:05:41.154Z,21.70
2018-05-27T07:08:08.719Z,21.65
2018-05-27T07:10:36.344Z,21.56
2018-05-27T07:13:05.495Z,21.44
2018-05-27T07:15:34.099Z,21.50
2018-05-27T07:18:01.801Z,21.46
2018-05-27T07:20:29.478Z,21.48
2018-05-27T07:22:58.374Z,21.56
2018-05-27T07:25:26.351Z,21.65
2018-05-27T07:27:54.515Z,21.78
2018-05-27T07:30:22.033Z,21.90
2018-05-27T07:32:54.332Z,22.00
2018-05-27T07:35:22.221Z,22.13
2018-05-27T07:37:50.041Z,22.26
2018-05-27T07:40:19.521Z,22.20
2018-05-27T07:42:48.164Z,22.28
2018-05-27T07:45:17.375Z,22.32
2018-05-27T07:47:48.582Z,22.29
2018-05-27T07:50:16.557Z,22.40
2018-05-27T07:52:47.697Z,22.49
2018-05-27T07:55:17.053Z,22.70
2018-05-27T07:57:49.081Z,23.01
2018-05-27T08:00:26.333Z,23.12
2018-05-27T08:02:58.971Z,23.04
2018-05-27T08:05:28.967Z,23.08
2018-05-27T08:07:56.528Z,22.95
2018-05-27T08:10:24.099Z,22.88
2018-05-27T08:12:51.752Z,22.82
2018-05-27T08:15:19.475Z,22.90
2018-05-27T08:17:47.973Z,23.18
2018-05-27T08:20:15.650Z,23.41
2018-05-27T08:22:43.234Z,23.43
2018-05-27T08:25:13.228Z,23.47
2018-05-27T08:27:41.018Z,23.58
2018-05-27T08:30:08.663Z,23.53
2018-05-27T08:32:36.189Z,23.70
2018-05-27T08:35:03.747Z,23.66
2018-05-27T08:37:31.334Z,23.86
2018-05-27T08:39:58.898Z,24.06
2018-05-27T08:42:26.453Z,23.88
2018-05-27T08:44:54.026Z,24.12
2018-05-27T08:47:21.556Z,24.11
2018-05-27T08:49:49.131Z,23.93
2018-05-27T08:52:16.691Z,23.98
2018-05-27T08:54:44.259Z,24.26
2018-05-27T08:57:11.791Z,24.36
2018-05-27T08:59:39.338Z,24.19
2018-05-27T09:02:09.434Z,24.07
2018-05-27T09:04:37.252Z,24.04
2018-05-27T09:07:04.821Z,24.18
2018-05-27T09:09:32.442Z,24.15
2018-05-27T09:11:59.972Z,24.33
2018-05-27T09:14:27.605Z,24.36
2018-05-27T09:16:55.155Z,24.31
2018-05-27T09:19:22.711Z,24.39
2018-05-27T09:21:50.931Z,24.48
2018-05-27T09:24:18.660Z,24.56
2018-05-27T09:26:46.214Z,24.40
2018-05-27T09:29:13.788Z,24.48
2018-05-27T09:31:41.430Z,24.41
2018-05-27T09:34:08.994Z,24.35
2018-05-27T09:36:36.521Z,24.24
2018-05-27T09:39:04.117Z,24.10
2018-05-27T09:41:31.675Z,24.49
2018-05-27T09:43:59.554Z,24.31
2018-05-27T09:46:27.498Z,24.45
2018-05-27T09:48:55.178Z,24.66
2018-05-27T09:51:23.041Z,24.95
2018-05-27T09:53:50.605Z,24.94
2018-05-27T09:56:18.254Z,24.82
2018-05-27T09:58:45.813Z,24.82
2018-05-27T10:01:13.970Z,24.79
2018-05-27T10:03:45.237Z,25.06
2018-05-27T10:06:21.372Z,25.06
2018-05-27T10:08:49.277Z,25.06
2018-05-27T10:11:16.923Z,25.25
2018-05-27T10:13:44.457Z,25.04
2018-05-27T10:16:12.050Z,25.25
2018-05-27T10:18:39.583Z,25.07
2018-05-27T10:21:07.159Z,25.32
2018-05-27T10:23:34.717Z,25.54
2018-05-27T10:26:02.463Z,25.41
2018-05-27T10:28:31.577Z,25.46
2018-05-27T10:30:59.241Z,25.31
2018-05-27T10:33:26.797Z,25.30
2018-05-27T10:35:54.350Z,25.74
2018-05-27T10:38:23.228Z,25.70
2018-05-27T10:40:50.778Z,25.85
2018-05-27T10:43:18.881Z,26.15
2018-05-27T10:45:47.055Z,26.29
2018-05-27T10:48:14.583Z,26.00
2018-05-27T10:50:42.176Z,26.06
2018-05-27T10:53:09.740Z,26.43
2018-05-27T10:55:37.294Z,26.38
2018-05-27T10:58:04.850Z,26.11
2018-05-27T11:00:32.395Z,26.17
2018-05-27T11:02:59.927Z,26.11
2018-05-27T11:05:27.532Z,26.11
2018-05-27T11:07:55.550Z,26.47
2018-05-27T11:10:23.110Z,26.18
2018-05-27T11:12:51.654Z,26.49
2018-05-27T11:15:19.287Z,26.08
2018-05-27T11:17:46.864Z,26.12
2018-05-27T11:20:14.629Z,26.16
2018-05-27T11:22:42.163Z,26.01
2018-05-27T11:25:09.751Z,25.93
2018-05-27T11:27:37.304Z,26.03
2018-05-27T11:30:04.977Z,26.12
2018-05-27T11:32:32.582Z,26.17
2018-05-27T11:35:00.191Z,25.79
2018-05-27T11:37:27.701Z,25.86
2018-05-27T11:39:55.307Z,26.02
2018-05-27T11:42:22.864Z,25.96
2018-05-27T11:44:50.436Z,25.81
2018-05-27T11:47:18.638Z,26.02
2018-05-27T11:49:46.678Z,26.63
2018-05-27T11:52:14.807Z,27.00
2018-05-27T11:54:42.408Z,26.93
2018-05-27T11:57:10.065Z,26.71
2018-05-27T11:59:38.183Z,26.72
2018-05-27T12:02:05.801Z,26.96
2018-05-27T12:04:33.618Z,26.88
2018-05-27T12:07:01.655Z,26.63
2018-05-27T12:09:29.289Z,26.97
2018-05-27T12:11:56.805Z,26.66
2018-05-27T12:14:24.536Z,27.12
2018-05-27T12:16:52.179Z,27.20
2018-05-27T12:19:19.726Z,27.38
2018-05-27T12:21:47.290Z,27.37
2018-05-27T12:24:15.778Z,27.10
2018-05-27T12:26:43.438Z,27.39
2018-05-27T12:29:10.978Z,27.30
2018-05-27T12:31:38.552Z,27.50
2018-05-27T12:34:06.127Z,27.53
2018-05-27T12:36:33.702Z,27.68
2018-05-27T12:39:01.235Z,27.34
2018-05-27T12:41:28.809Z,27.61
2018-05-27T12:43:56.356Z,27.69
2018-05-27T12:46:24.132Z,27.95
2018-05-27T12:48:52.191Z,27.69
2018-05-27T12:51:19.742Z,27.34
2018-05-27T12:53:47.309Z,27.18
2018-05-27T12:56:14.869Z,27.05
2018-05-27T12:58:42.430Z,26.82
2018-05-27T13:01:10.103Z,26.85
2018-05-27T13:03:37.704Z,26.91
2018-05-27T13:06:05.539Z,27.05
2018-05-27T13:08:34.261Z,26.69
2018-05-27T13:11:01.966Z,26.70
2018-05-27T13:13:29.628Z,26.71
2018-05-27T13:15:57.318Z,26.72
2018-05-27T13:18:24.963Z,26.96
2018-05-27T13:20:52.584Z,26.98
2018-05-27T13:23:20.516Z,26.83
2018-05-27T13:25:49.921Z,26.89
2018-05-27T13:28:17.474Z,26.72
2018-05-27T13:30:45.037Z,26.95
2018-05-27T13:33:12.600Z,26.88
2018-05-27T13:35:40.204Z,26.77
2018-05-27T13:38:08.585Z,26.82
2018-05-27T13:40:36.664Z,26.82
2018-05-27T13:43:04.213Z,26.65
2018-05-27T13:45:31.738Z,26.69
2018-05-27T13:47:59.345Z,26.71
2018-05-27T13:50:27.022Z,26.92
2018-05-27T13:52:54.591Z,26.93
2018-05-27T13:55:22.151Z,27.07
2018-05-27T13:57:50.148Z,27.45
2018-05-27T14:00:17.722Z,27.40
2018-05-27T14:02:45.303Z,27.92
2018-05-27T14:05:12.881Z,28.00
2018-05-27T14:07:40.453Z,27.35
2018-05-27T14:10:08.149Z,27.41
2018-05-27T14:12:35.718Z,27.26
2018-05-27T14:15:03.329Z,27.44
2018-05-27T14:17:30.986Z,27.47
2018-05-27T14:19:58.545Z,27.92
2018-05-27T14:22:26.104Z,28.20
2018-05-27T14:24:53.627Z,27.73
2018-05-27T14:27:21.255Z,27.88
2018-05-27T14:29:48.780Z,28.00
2018-05-27T14:32:16.446Z,27.99
2018-05-27T14:34:44.004Z,28.39
2018-05-27T14:37:11.559Z,28.61
2018-05-27T14:39:39.085Z,28.35
2018-05-27T14:42:06.692Z,27.91
2018-05-27T14:44:34.221Z,28.30
2018-05-27T14:47:01.799Z,28.98
2018-05-27T14:49:29.361Z,29.43
2018-05-27T14:51:56.897Z,29.66
2018-05-27T14:54:24.478Z,29.13
2018-05-27T14:56:52.046Z,28.87
2018-05-27T14:59:20.476Z,28.80
2018-05-27T15:01:48.080Z,28.64
2018-05-27T15:04:17.355Z,28.60
2018-05-27T15:06:45.463Z,28.38
2018-05-27T15:09:13.985Z,28.01
2018-05-27T15:11:41.593Z,28.41
2018-05-27T15:14:09.230Z,28.61
2018-05-27T15:16:36.821Z,28.53
2018-05-27T15:19:04.476Z,28.79
2018-05-27T15:21:32.035Z,28.36
2018-05-27T15:24:01.632Z,28.63
2018-05-27T15:26:29.203Z,29.01
2018-05-27T15:28:57.382Z,28.42
2018-05-27T15:31:25.376Z,28.14
2018-05-27T15:33:53.051Z,28.27
2018-05-27T15:36:21.590Z,28.35
2018-05-27T15:38:49.149Z,29.11
2018-05-27T15:41:16.665Z,29.15
2018-05-27T15:43:44.218Z,29.25
2018-05-27T15:46:11.820Z,29.60
2018-05-27T15:48:39.369Z,29.54
2018-05-27T15:51:06.952Z,29.98
2018-05-27T15:53:34.526Z,30.06
2018-05-27T15:56:02.065Z,29.67
2018-05-27T15:58:30.363Z,29.47
2018-05-27T16:00:58.020Z,29.66
2018-05-27T16:03:25.588Z,29.66
2018-05-27T16:05:53.531Z,29.83
2018-05-27T16:08:21.138Z,29.61
2018-05-27T16:10:50.270Z,29.47
2018-05-27T16:13:19.388Z,29.42
2018-05-27T16:15:46.992Z,29.49
2018-05-27T16:18:14.534Z,29.99
2018-05-27T16:20:42.160Z,29.34
2018-05-27T16:23:10.751Z,29.52
2018-05-27T16:25:38.575Z,30.34
2018-05-27T16:28:06.179Z,29.61
2018-05-27T16:30:33.836Z,30.12
2018-05-27T16:33:01.498Z,29.76
2018-05-27T16:35:29.056Z,28.87
2018-05-27T16:37:56.614Z,28.81
2018-05-27T16:40:24.142Z,28.79
2018-05-27T16:42:51.746Z,28.41
2018-05-27T16:45:19.398Z,28.15
2018-05-27T16:47:47.366Z,28.08
2018-05-27T16:50:15.027Z,28.08
2018-05-27T16:52:42.562Z,27.93
2018-05-27T16:55:10.122Z,27.66
2018-05-27T16:57:37.707Z,27.55
2018-05-27T17:00:05.353Z,27.34
2018-05-27T17:02:32.926Z,27.32
2018-05-27T17:05:00.485Z,27.13
2018-05-27T17:07:28.044Z,27.11
2018-05-27T17:09:55.612Z,26.88
2018-05-27T17:12:24.200Z,26.84
2018-05-27T17:14:51.770Z,27.00
2018-05-27T17:17:19.297Z,27.18
2018-05-27T17:19:46.849Z,26.84
2018-05-27T17:22:14.357Z,26.49
2018-05-27T17:24:41.897Z,26.60
2018-05-27T17:27:09.432Z,26.41
2018-05-27T17:29:36.983Z,26.30
2018-05-27T17:32:04.515Z,26.44
2018-05-27T17:34:32.091Z,26.11
2018-05-27T17:36:59.617Z,25.80
2018-05-27T17:39:27.166Z,25.96
2018-05-27T17:41:54.845Z,25.85
2018-05-27T17:44:22.413Z,25.63
2018-05-27T17:46:50.021Z,25.63
2018-05-27T17:49:17.578Z,25.51
2018-05-27T17:51:45.148Z,25.46
2018-05-27T17:54:12.729Z,25.17
2018-05-27T17:56:40.362Z,25.34
2018-05-27T17:59:08.022Z,25.27
2018-05-27T18:01:35.540Z,25.09
2018-05-27T18:04:03.139Z,24.93
2018-05-27T18:06:30.665Z,24.86
2018-05-27T18:08:58.222Z,24.90
2018-05-27T18:11:25.830Z,24.81
2018-05-27T18:13:53.376Z,24.50
2018-05-27T18:16:20.936Z,24.47
2018-05-27T18:18:48.478Z,24.44
2018-05-27T18:21:16.158Z,24.29
2018-05-27T18:23:44.422Z,24.13
2018-05-27T18:26:12.101Z,24.07
2018-05-27T18:28:39.666Z,24.04
2018-05-27T18:31:07.340Z,23.94
2018-05-27T18:33:34.979Z,23.86
2018-05-27T18:36:02.645Z,23.73
2018-05-27T18:38:40.447Z,23.28
2018-05-27T18:41:23.769Z,23.22
2018-05-27T18:43:56.100Z,23.04
2018-05-27T18:46:23.820Z,22.98
2018-05-27T18:48:51.352Z,23.00
2018-05-27T18:51:18.972Z,23.02
2018-05-27T18:53:46.480Z,22.98
2018-05-27T18:56:14.035Z,23.05
2018-05-27T18:58:41.562Z,23.00
2018-05-27T19:01:09.122Z,22.84
2018-05-27T19:03:36.667Z,22.73
2018-05-27T19:06:04.213Z,22.72
2018-05-27T19:08:31.745Z,22.69
2018-05-27T19:10:59.298Z,22.50
2018-05-27T19:13:26.852Z,22.46
2018-05-27T19:15:54.421Z,22.39
2018-05-27T19:18:21.979Z,22.62
2018-05-27T19:20:49.536Z,22.51
2018-05-27T19:23:17.082Z,22.47
2018-05-27T19:25:44.636Z,22.39
2018-05-27T19:28:12.209Z,22.33
2018-05-27T19:30:39.764Z,22.40
2018-05-27T19:33:07.340Z,22.35
2018-05-27T19:35:34.897Z,22.29
2018-05-27T19:38:03.676Z,22.17
2018-05-27T19:40:31.565Z,22.11
2018-05-27T19:42:59.100Z,21.97
2018-05-27T19:45:26.661Z,21.83
2018-05-27T19:47:54.221Z,22.06
2018-05-27T19:50:21.781Z,21.91
2018-05-27T19:52:49.338Z,21.84
2018-05-27T19:55:16.881Z,21.98
2018-05-27T19:57:44.467Z,21.94
2018-05-27T20:00:12.461Z,21.96
2018-05-27T20:02:40.075Z,21.49
2018-05-27T20:05:07.751Z,21.32
2018-05-27T20:07:35.271Z,21.53
2018-05-27T20:10:02.856Z,21.54
2018-05-27T20:12:30.432Z,21.47
2018-05-27T20:14:59.061Z,21.54
2018-05-27T20:17:26.633Z,21.53
2018-05-27T20:19:54.181Z,21.29
2018-05-27T20:22:21.793Z,21.06
2018-05-27T20:24:49.352Z,21.03
2018-05-27T20:27:17.015Z,20.88
2018-05-27T20:29:44.541Z,20.88
2018-05-27T20:32:12.144Z,20.70
2018-05-27T20:34:39.661Z,20.89
2018-05-27T20:37:07.213Z,20.92
2018-05-27T20:39:35.121Z,20.64
2018-05-27T20:42:02.725Z,20.69
2018-05-27T20:44:30.261Z,20.67
2018-05-27T20:47:01.136Z,20.70
2018-05-27T20:49:32.246Z,20.59
2018-05-27T20:52:00.791Z,20.64
2018-05-27T20:54:28.365Z,20.70
2018-05-27T20:56:55.976Z,20.77
2018-05-27T20:59:23.533Z,20.62
2018-05-27T21:01:51.141Z,20.36
2018-05-27T21:04:19.121Z,20.38
2018-05-27T21:06:46.975Z,20.41
2018-05-27T21:09:15.002Z,20.44
2018-05-27T21:11:43.596Z,20.38
2018-05-27T21:14:11.190Z,20.36
2018-05-27T21:16:38.758Z,20.26
2018-05-27T21:19:06.985Z,20.28
2018-05-27T21:21:34.538Z,20.19
2018-05-27T21:24:02.065Z,20.25
2018-05-27T21:26:30.538Z,20.21
2018-05-27T21:28:58.287Z,20.12
2018-05-27T21:31:26.345Z,19.89
2018-05-27T21:33:54.369Z,19.86
2018-05-27T21:36:22.566Z,19.87
2018-05-27T21:38:50.165Z,20.02
2018-05-27T21:41:18.131Z,20.09
2018-05-27T21:43:45.655Z,19.90
2018-05-27T21:46:13.744Z,19.91
2018-05-27T21:48:41.324Z,19.74
2018-05-27T21:51:08.929Z,19.65
2018-05-27T21:53:36.712Z,19.24
2018-05-27T21:56:04.512Z,19.56
2018-05-27T21:58:32.378Z,19.65
2018-05-27T22:01:00.319Z,19.62
2018-05-27T22:03:27.917Z,19.50
2018-05-27T22:05:55.754Z,19.63
2018-05-27T22:08:23.639Z,19.43
2018-05-27T22:10:51.199Z,19.27
2018-05-27T22:13:19.181Z,19.19
2018-05-27T22:15:47.345Z,19.38
2018-05-27T22:18:15.630Z,19.59
2018-05-27T22:20:43.329Z,19.49
2018-05-27T22:23:11.514Z,19.40
2018-05-27T22:25:39.628Z,19.16
2018-05-27T22:28:07.467Z,19.02
2018-05-27T22:30:34.974Z,18.97
2018-05-27T22:33:03.023Z,19.11
2018-05-27T22:35:30.549Z,19.29
2018-05-27T22:37:58.780Z,19.35
2018-05-27T22:40:26.603Z,19.20
2018-05-27T22:42:54.256Z,19.08
2018-05-27T22:45:22.161Z,18.81
2018-05-27T22:47:49.937Z,18.73
2018-05-27T22:50:17.481Z,18.85
2018-05-27T22:52:47.490Z,18.89
2018-05-27T22:55:15.017Z,18.63
2018-05-27T22:57:42.597Z,18.72
2018-05-27T23:00:10.198Z,18.65
2018-05-27T23:02:37.826Z,18.74
2018-05-27T23:05:05.344Z,18.56
2018-05-27T23:07:33.016Z,18.25
2018-05-27T23:10:00.610Z,18.37
2018-05-27T23:12:28.154Z,18.48
2018-05-27T23:14:55.684Z,18.47
2018-05-27T23:17:23.262Z,18.48
2018-05-27T23:19:50.791Z,18.58
2018-05-27T23:22:18.494Z,18.23
2018-05-27T23:24:46.074Z,18.25
2018-05-27T23:27:13.744Z,18.28
2018-05-27T23:29:41.315Z,18.21
2018-05-27T23:32:08.850Z,18.04
2018-05-27T23:34:36.425Z,17.80
2018-05-27T23:37:03.951Z,18.12
2018-05-27T23:39:31.529Z,18.20
2018-05-27T23:41:59.056Z,18.28
2018-05-27T23:44:26.612Z,18.26
2018-05-27T23:46:54.205Z,18.12
2018-05-27T23:49:21.767Z,17.98
2018-05-27T23:51:49.285Z,18.05
2018-05-27T23:54:16.886Z,18.09
2018-05-27T23:56:44.416Z,18.06
2018-05-27T23:59:11.973Z,18.05
